sensor_id;sensor_type;location;lat;lon;timestamp;P1;durP1;ratioP1;P2;durP2;ratioP2
63350;SDS011;64988;51.058;17.040;2022-11-09T00:00:19;30.23;;;10.57;;
63350;SDS011;64988;51.058;17.040;2022-11-09T00:06:12;17.50;;;9.17;;
63350;SDS011;64988;51.058;17.040;2022-11-09T00:12:06;23.17;;;9.43;;
63350;SDS011;64988;51.058;17.040;2022-11-09T00:17:59;22.17;;;8.57;;
63350;SDS011;64988;51.058;17.040;2022-11-09T00:23:55;23.63;;;8.63;;
63350;SDS011;64988;51.058;17.040;2022-11-09T00:35:43;21.77;;;10.15;;
63350;SDS011;64988;51.058;17.040;2022-11-09T00:41:35;25.48;;;9.32;;
63350;SDS011;64988;51.058;17.040;2022-11-09T00:47:28;28.55;;;11.95;;
63350;SDS011;64988;51.058;17.040;2022-11-09T00:53:21;18.83;;;7.97;;
63350;SDS011;64988;51.058;17.040;2022-11-09T00:59:15;24.65;;;10.65;;
63350;SDS011;64988;51.058;17.040;2022-11-09T01:05:09;33.78;;;12.98;;
63350;SDS011;64988;51.058;17.040;2022-11-09T01:11:03;27.00;;;11.20;;
63350;SDS011;64988;51.058;17.040;2022-11-09T01:16:57;27.63;;;10.52;;
63350;SDS011;64988;51.058;17.040;2022-11-09T01:22:50;30.43;;;11.33;;
63350;SDS011;64988;51.058;17.040;2022-11-09T01:28:43;29.92;;;11.88;;
63350;SDS011;64988;51.058;17.040;2022-11-09T01:34:35;29.73;;;12.82;;
63350;SDS011;64988;51.058;17.040;2022-11-09T01:40:28;30.55;;;9.95;;
63350;SDS011;64988;51.058;17.040;2022-11-09T01:46:23;29.52;;;12.27;;
63350;SDS011;64988;51.058;17.040;2022-11-09T01:52:26;37.88;;;12.27;;
63350;SDS011;64988;51.058;17.040;2022-11-09T01:58:40;34.17;;;11.48;;
63350;SDS011;64988;51.058;17.040;2022-11-09T02:04:57;36.75;;;13.07;;
63350;SDS011;64988;51.058;17.040;2022-11-09T02:17:02;33.63;;;10.97;;
63350;SDS011;64988;51.058;17.040;2022-11-09T02:22:55;26.52;;;11.18;;
63350;SDS011;64988;51.058;17.040;2022-11-09T02:28:48;34.63;;;11.18;;
63350;SDS011;64988;51.058;17.040;2022-11-09T02:34:43;35.97;;;13.32;;
63350;SDS011;64988;51.058;17.040;2022-11-09T02:40:37;28.63;;;11.13;;
63350;SDS011;64988;51.058;17.040;2022-11-09T02:46:33;33.47;;;11.70;;
63350;SDS011;64988;51.058;17.040;2022-11-09T02:52:28;32.00;;;12.43;;
63350;SDS011;64988;51.058;17.040;2022-11-09T02:58:21;30.67;;;11.02;;
63350;SDS011;64988;51.058;17.040;2022-11-09T03:04:15;31.27;;;13.13;;
63350;SDS011;64988;51.058;17.040;2022-11-09T03:10:09;36.95;;;13.40;;
63350;SDS011;64988;51.058;17.040;2022-11-09T03:16:03;28.87;;;12.33;;
63350;SDS011;64988;51.058;17.040;2022-11-09T03:22:04;30.92;;;12.20;;
63350;SDS011;64988;51.058;17.040;2022-11-09T03:28:00;29.17;;;11.03;;
63350;SDS011;64988;51.058;17.040;2022-11-09T03:33:55;30.00;;;12.63;;
63350;SDS011;64988;51.058;17.040;2022-11-09T03:39:47;32.95;;;12.15;;
63350;SDS011;64988;51.058;17.040;2022-11-09T03:45:40;30.40;;;11.32;;
63350;SDS011;64988;51.058;17.040;2022-11-09T03:51:33;30.33;;;11.23;;
63350;SDS011;64988;51.058;17.040;2022-11-09T03:57:26;37.90;;;13.53;;
63350;SDS011;64988;51.058;17.040;2022-11-09T04:03:20;28.33;;;11.13;;
63350;SDS011;64988;51.058;17.040;2022-11-09T04:09:13;29.00;;;10.17;;
63350;SDS011;64988;51.058;17.040;2022-11-09T04:15:06;35.07;;;12.10;;
63350;SDS011;64988;51.058;17.040;2022-11-09T04:21:00;28.67;;;10.85;;
63350;SDS011;64988;51.058;17.040;2022-11-09T04:26:53;27.13;;;11.03;;
63350;SDS011;64988;51.058;17.040;2022-11-09T04:32:46;21.17;;;9.47;;
63350;SDS011;64988;51.058;17.040;2022-11-09T04:38:39;27.10;;;12.00;;
63350;SDS011;64988;51.058;17.040;2022-11-09T04:44:32;23.90;;;11.93;;
63350;SDS011;64988;51.058;17.040;2022-11-09T04:50:24;21.83;;;9.98;;
63350;SDS011;64988;51.058;17.040;2022-11-09T04:56:19;30.45;;;11.40;;
63350;SDS011;64988;51.058;17.040;2022-11-09T05:02:12;24.97;;;8.63;;
63350;SDS011;64988;51.058;17.040;2022-11-09T05:08:05;23.60;;;9.60;;
63350;SDS011;64988;51.058;17.040;2022-11-09T05:13:58;26.00;;;10.17;;
63350;SDS011;64988;51.058;17.040;2022-11-09T05:19:51;34.50;;;11.73;;
63350;SDS011;64988;51.058;17.040;2022-11-09T05:25:48;30.85;;;11.55;;
63350;SDS011;64988;51.058;17.040;2022-11-09T05:31:41;24.85;;;10.20;;
63350;SDS011;64988;51.058;17.040;2022-11-09T05:37:40;29.77;;;11.20;;
63350;SDS011;64988;51.058;17.040;2022-11-09T05:43:33;37.90;;;11.13;;
63350;SDS011;64988;51.058;17.040;2022-11-09T05:49:25;27.17;;;10.90;;
63350;SDS011;64988;51.058;17.040;2022-11-09T05:55:18;31.10;;;11.93;;
63350;SDS011;64988;51.058;17.040;2022-11-09T06:01:12;32.13;;;12.53;;
63350;SDS011;64988;51.058;17.040;2022-11-09T06:07:08;34.75;;;13.52;;
63350;SDS011;64988;51.058;17.040;2022-11-09T06:13:01;36.53;;;11.70;;
63350;SDS011;64988;51.058;17.040;2022-11-09T06:18:54;26.57;;;10.93;;
63350;SDS011;64988;51.058;17.040;2022-11-09T06:24:47;32.23;;;12.57;;
63350;SDS011;64988;51.058;17.040;2022-11-09T06:30:40;35.50;;;12.50;;
63350;SDS011;64988;51.058;17.040;2022-11-09T06:36:32;35.10;;;13.38;;
63350;SDS011;64988;51.058;17.040;2022-11-09T06:42:24;42.80;;;15.07;;
63350;SDS011;64988;51.058;17.040;2022-11-09T06:48:16;38.47;;;14.80;;
63350;SDS011;64988;51.058;17.040;2022-11-09T06:54:09;29.50;;;11.23;;
63350;SDS011;64988;51.058;17.040;2022-11-09T07:00:02;31.13;;;11.88;;
63350;SDS011;64988;51.058;17.040;2022-11-09T07:05:56;31.45;;;13.15;;
63350;SDS011;64988;51.058;17.040;2022-11-09T07:11:49;28.37;;;10.40;;
63350;SDS011;64988;51.058;17.040;2022-11-09T07:17:41;36.38;;;12.52;;
63350;SDS011;64988;51.058;17.040;2022-11-09T07:23:34;24.70;;;11.10;;
63350;SDS011;64988;51.058;17.040;2022-11-09T07:29:27;31.87;;;11.87;;
63350;SDS011;64988;51.058;17.040;2022-11-09T07:35:20;32.85;;;11.15;;
63350;SDS011;64988;51.058;17.040;2022-11-09T07:41:13;29.27;;;12.55;;
63350;SDS011;64988;51.058;17.040;2022-11-09T07:47:06;25.07;;;11.43;;
63350;SDS011;64988;51.058;17.040;2022-11-09T07:53:00;32.67;;;12.98;;
63350;SDS011;64988;51.058;17.040;2022-11-09T07:58:53;31.13;;;12.82;;
63350;SDS011;64988;51.058;17.040;2022-11-09T08:04:46;29.77;;;13.23;;
63350;SDS011;64988;51.058;17.040;2022-11-09T08:10:38;33.22;;;14.68;;
63350;SDS011;64988;51.058;17.040;2022-11-09T08:16:31;38.50;;;14.65;;
63350;SDS011;64988;51.058;17.040;2022-11-09T08:22:28;32.65;;;13.00;;
63350;SDS011;64988;51.058;17.040;2022-11-09T08:28:21;32.23;;;13.43;;
63350;SDS011;64988;51.058;17.040;2022-11-09T08:34:15;33.97;;;12.35;;
63350;SDS011;64988;51.058;17.040;2022-11-09T08:40:08;22.60;;;9.67;;
63350;SDS011;64988;51.058;17.040;2022-11-09T08:46:00;30.33;;;11.35;;
63350;SDS011;64988;51.058;17.040;2022-11-09T08:51:53;26.73;;;11.07;;
63350;SDS011;64988;51.058;17.040;2022-11-09T08:57:46;25.45;;;10.25;;
63350;SDS011;64988;51.058;17.040;2022-11-09T09:03:39;28.20;;;10.50;;
63350;SDS011;64988;51.058;17.040;2022-11-09T09:09:31;25.20;;;11.18;;
63350;SDS011;64988;51.058;17.040;2022-11-09T09:15:25;23.05;;;10.55;;
63350;SDS011;64988;51.058;17.040;2022-11-09T09:21:17;25.17;;;10.67;;
63350;SDS011;64988;51.058;17.040;2022-11-09T09:27:10;28.07;;;11.40;;
63350;SDS011;64988;51.058;17.040;2022-11-09T09:33:05;20.42;;;9.70;;
63350;SDS011;64988;51.058;17.040;2022-11-09T09:38:57;22.20;;;9.70;;
63350;SDS011;64988;51.058;17.040;2022-11-09T09:45:07;21.17;;;9.93;;
63350;SDS011;64988;51.058;17.040;2022-11-09T09:57:24;21.88;;;9.57;;
63350;SDS011;64988;51.058;17.040;2022-11-09T10:03:19;17.90;;;9.00;;
63350;SDS011;64988;51.058;17.040;2022-11-09T10:27:34;26.08;;;9.93;;
63350;SDS011;64988;51.058;17.040;2022-11-09T10:33:29;23.77;;;8.85;;
63350;SDS011;64988;51.058;17.040;2022-11-09T10:39:22;22.90;;;9.15;;
63350;SDS011;64988;51.058;17.040;2022-11-09T10:45:37;22.52;;;9.82;;
63350;SDS011;64988;51.058;17.040;2022-11-09T10:51:53;20.17;;;9.55;;
63350;SDS011;64988;51.058;17.040;2022-11-09T11:04:34;22.55;;;9.93;;
63350;SDS011;64988;51.058;17.040;2022-11-09T11:10:45;23.17;;;10.00;;
63350;SDS011;64988;51.058;17.040;2022-11-09T11:16:56;20.70;;;8.60;;
63350;SDS011;64988;51.058;17.040;2022-11-09T11:23:11;20.30;;;8.70;;
63350;SDS011;64988;51.058;17.040;2022-11-09T11:29:43;20.10;;;9.15;;
63350;SDS011;64988;51.058;17.040;2022-11-09T11:36:05;21.47;;;8.83;;
63350;SDS011;64988;51.058;17.040;2022-11-09T11:55:21;23.30;;;9.77;;
63350;SDS011;64988;51.058;17.040;2022-11-09T12:02:00;20.88;;;9.48;;
63350;SDS011;64988;51.058;17.040;2022-11-09T12:08:20;21.38;;;9.30;;
63350;SDS011;64988;51.058;17.040;2022-11-09T12:14:38;26.25;;;10.32;;
63350;SDS011;64988;51.058;17.040;2022-11-09T12:21:17;19.48;;;8.85;;
63350;SDS011;64988;51.058;17.040;2022-11-09T12:34:46;24.45;;;10.55;;
63350;SDS011;64988;51.058;17.040;2022-11-09T12:41:14;28.40;;;10.38;;
63350;SDS011;64988;51.058;17.040;2022-11-09T12:47:29;23.25;;;9.95;;
63350;SDS011;64988;51.058;17.040;2022-11-09T12:53:46;28.88;;;11.05;;
63350;SDS011;64988;51.058;17.040;2022-11-09T12:59:58;24.27;;;10.00;;
63350;SDS011;64988;51.058;17.040;2022-11-09T13:12:33;21.15;;;10.00;;
63350;SDS011;64988;51.058;17.040;2022-11-09T13:18:49;22.03;;;9.63;;
63350;SDS011;64988;51.058;17.040;2022-11-09T13:25:04;28.15;;;9.18;;
63350;SDS011;64988;51.058;17.040;2022-11-09T13:32:02;24.70;;;10.13;;
63350;SDS011;64988;51.058;17.040;2022-11-09T13:38:35;31.83;;;10.82;;
63350;SDS011;64988;51.058;17.040;2022-11-09T13:44:46;24.10;;;10.85;;
63350;SDS011;64988;51.058;17.040;2022-11-09T13:51:02;30.42;;;11.57;;
63350;SDS011;64988;51.058;17.040;2022-11-09T13:57:15;23.10;;;11.15;;
63350;SDS011;64988;51.058;17.040;2022-11-09T14:03:27;27.58;;;10.75;;
63350;SDS011;64988;51.058;17.040;2022-11-09T14:09:44;31.37;;;11.53;;
63350;SDS011;64988;51.058;17.040;2022-11-09T14:22:45;28.05;;;11.48;;
63350;SDS011;64988;51.058;17.040;2022-11-09T14:28:56;30.55;;;11.63;;
63350;SDS011;64988;51.058;17.040;2022-11-09T14:35:27;26.13;;;11.35;;
63350;SDS011;64988;51.058;17.040;2022-11-09T14:41:42;25.10;;;9.80;;
63350;SDS011;64988;51.058;17.040;2022-11-09T14:47:56;29.77;;;10.77;;
63350;SDS011;64988;51.058;17.040;2022-11-09T14:54:11;25.27;;;11.10;;
63350;SDS011;64988;51.058;17.040;2022-11-09T15:00:30;27.58;;;12.13;;
63350;SDS011;64988;51.058;17.040;2022-11-09T15:06:54;28.10;;;12.40;;
63350;SDS011;64988;51.058;17.040;2022-11-09T15:13:10;40.75;;;15.15;;
63350;SDS011;64988;51.058;17.040;2022-11-09T15:19:30;39.97;;;13.13;;
63350;SDS011;64988;51.058;17.040;2022-11-09T15:32:00;34.47;;;12.52;;
63350;SDS011;64988;51.058;17.040;2022-11-09T15:38:28;27.13;;;10.63;;
63350;SDS011;64988;51.058;17.040;2022-11-09T15:44:53;27.50;;;12.98;;
63350;SDS011;64988;51.058;17.040;2022-11-09T15:51:07;36.22;;;12.40;;
63350;SDS011;64988;51.058;17.040;2022-11-09T15:57:18;27.38;;;11.60;;
63350;SDS011;64988;51.058;17.040;2022-11-09T16:03:30;23.55;;;11.10;;
63350;SDS011;64988;51.058;17.040;2022-11-09T16:09:41;32.50;;;13.15;;
63350;SDS011;64988;51.058;17.040;2022-11-09T16:15:59;37.58;;;12.98;;
63350;SDS011;64988;51.058;17.040;2022-11-09T16:22:12;34.00;;;12.82;;
63350;SDS011;64988;51.058;17.040;2022-11-09T16:28:24;26.45;;;11.88;;
63350;SDS011;64988;51.058;17.040;2022-11-09T16:34:35;33.85;;;13.48;;
63350;SDS011;64988;51.058;17.040;2022-11-09T16:40:46;30.88;;;12.63;;
63350;SDS011;64988;51.058;17.040;2022-11-09T16:46:57;31.27;;;12.30;;
63350;SDS011;64988;51.058;17.040;2022-11-09T16:53:08;32.92;;;12.75;;
63350;SDS011;64988;51.058;17.040;2022-11-09T16:59:21;31.35;;;13.05;;
63350;SDS011;64988;51.058;17.040;2022-11-09T17:05:35;41.50;;;13.20;;
63350;SDS011;64988;51.058;17.040;2022-11-09T17:11:46;38.22;;;14.25;;
63350;SDS011;64988;51.058;17.040;2022-11-09T17:17:57;36.75;;;13.25;;
63350;SDS011;64988;51.058;17.040;2022-11-09T17:24:09;38.60;;;12.77;;
63350;SDS011;64988;51.058;17.040;2022-11-09T17:30:20;32.65;;;12.48;;
63350;SDS011;64988;51.058;17.040;2022-11-09T17:36:32;31.33;;;13.20;;
63350;SDS011;64988;51.058;17.040;2022-11-09T17:43:03;36.85;;;12.80;;
63350;SDS011;64988;51.058;17.040;2022-11-09T17:49:15;43.85;;;13.90;;
63350;SDS011;64988;51.058;17.040;2022-11-09T17:55:27;35.95;;;12.23;;
63350;SDS011;64988;51.058;17.040;2022-11-09T18:01:38;36.45;;;15.05;;
63350;SDS011;64988;51.058;17.040;2022-11-09T18:07:56;42.10;;;15.43;;
63350;SDS011;64988;51.058;17.040;2022-11-09T18:14:08;43.13;;;16.40;;
63350;SDS011;64988;51.058;17.040;2022-11-09T18:20:20;43.33;;;14.48;;
63350;SDS011;64988;51.058;17.040;2022-11-09T18:26:32;40.90;;;15.98;;
63350;SDS011;64988;51.058;17.040;2022-11-09T18:32:43;46.83;;;15.77;;
63350;SDS011;64988;51.058;17.040;2022-11-09T18:38:54;40.92;;;15.98;;
63350;SDS011;64988;51.058;17.040;2022-11-09T18:45:07;47.08;;;17.63;;
63350;SDS011;64988;51.058;17.040;2022-11-09T18:51:19;43.75;;;17.33;;
63350;SDS011;64988;51.058;17.040;2022-11-09T18:57:31;39.47;;;14.85;;
63350;SDS011;64988;51.058;17.040;2022-11-09T19:03:42;43.47;;;17.15;;
63350;SDS011;64988;51.058;17.040;2022-11-09T19:09:53;44.78;;;15.10;;
63350;SDS011;64988;51.058;17.040;2022-11-09T19:16:08;50.05;;;16.90;;
63350;SDS011;64988;51.058;17.040;2022-11-09T19:22:22;36.97;;;14.98;;
63350;SDS011;64988;51.058;17.040;2022-11-09T19:34:47;61.45;;;18.30;;
63350;SDS011;64988;51.058;17.040;2022-11-09T19:40:58;45.42;;;17.73;;
63350;SDS011;64988;51.058;17.040;2022-11-09T19:47:09;51.20;;;16.50;;
63350;SDS011;64988;51.058;17.040;2022-11-09T19:53:20;47.50;;;16.05;;
63350;SDS011;64988;51.058;17.040;2022-11-09T19:59:31;40.83;;;15.80;;
63350;SDS011;64988;51.058;17.040;2022-11-09T20:11:56;51.22;;;17.00;;
63350;SDS011;64988;51.058;17.040;2022-11-09T20:18:26;49.22;;;18.13;;
63350;SDS011;64988;51.058;17.040;2022-11-09T20:24:37;41.50;;;16.20;;
63350;SDS011;64988;51.058;17.040;2022-11-09T20:30:48;40.13;;;16.33;;
63350;SDS011;64988;51.058;17.040;2022-11-09T20:36:59;35.13;;;15.85;;
63350;SDS011;64988;51.058;17.040;2022-11-09T20:43:10;42.70;;;15.73;;
63350;SDS011;64988;51.058;17.040;2022-11-09T20:49:21;39.88;;;17.13;;
63350;SDS011;64988;51.058;17.040;2022-11-09T20:55:40;50.00;;;17.98;;
63350;SDS011;64988;51.058;17.040;2022-11-09T21:01:53;37.47;;;14.90;;
63350;SDS011;64988;51.058;17.040;2022-11-09T21:08:04;45.85;;;15.43;;
63350;SDS011;64988;51.058;17.040;2022-11-09T21:14:15;33.38;;;15.15;;
63350;SDS011;64988;51.058;17.040;2022-11-09T21:20:28;35.22;;;12.75;;
63350;SDS011;64988;51.058;17.040;2022-11-09T21:26:41;42.88;;;15.07;;
63350;SDS011;64988;51.058;17.040;2022-11-09T21:33:12;36.97;;;15.25;;
63350;SDS011;64988;51.058;17.040;2022-11-09T21:39:29;40.17;;;14.48;;
63350;SDS011;64988;51.058;17.040;2022-11-09T21:45:40;35.03;;;13.95;;
63350;SDS011;64988;51.058;17.040;2022-11-09T21:51:52;30.40;;;13.73;;
63350;SDS011;64988;51.058;17.040;2022-11-09T21:58:05;31.30;;;13.37;;
63350;SDS011;64988;51.058;17.040;2022-11-09T22:04:18;37.50;;;14.02;;
63350;SDS011;64988;51.058;17.040;2022-11-09T22:10:30;36.13;;;13.80;;
63350;SDS011;64988;51.058;17.040;2022-11-09T22:16:40;39.35;;;15.23;;
63350;SDS011;64988;51.058;17.040;2022-11-09T22:22:52;34.83;;;13.32;;
63350;SDS011;64988;51.058;17.040;2022-11-09T22:29:04;39.05;;;14.20;;
63350;SDS011;64988;51.058;17.040;2022-11-09T22:35:16;28.55;;;12.55;;
63350;SDS011;64988;51.058;17.040;2022-11-09T22:41:27;29.38;;;12.23;;
63350;SDS011;64988;51.058;17.040;2022-11-09T22:47:38;25.17;;;11.00;;
63350;SDS011;64988;51.058;17.040;2022-11-09T22:53:49;30.33;;;11.52;;
63350;SDS011;64988;51.058;17.040;2022-11-09T23:00:02;30.50;;;11.05;;
63350;SDS011;64988;51.058;17.040;2022-11-09T23:06:15;26.00;;;9.07;;
63350;SDS011;64988;51.058;17.040;2022-11-09T23:18:42;29.40;;;11.25;;
63350;SDS011;64988;51.058;17.040;2022-11-09T23:31:37;28.52;;;10.43;;
63350;SDS011;64988;51.058;17.040;2022-11-09T23:37:55;23.42;;;10.07;;
63350;SDS011;64988;51.058;17.040;2022-11-09T23:44:10;29.50;;;11.40;;
63350;SDS011;64988;51.058;17.040;2022-11-09T23:50:21;31.80;;;10.45;;
63350;SDS011;64988;51.058;17.040;2022-11-09T23:56:32;29.35;;;10.35;;
